sensor_id;sensor_type;location;lat;lon;timestamp;pressure;altitude;pressure_sealevel;temperature;humidity
10988;BME280;5547;42.672;23.230;2023-02-28T00:00:07;93797.09;;;3.94;100.00
10988;BME280;5547;42.672;23.230;2023-02-28T00:03:10;93718.28;;;3.35;100.00
10988;BME280;5547;42.672;23.230;2023-02-28T00:06:11;93806.44;;;3.91;100.00
10988;BME280;5547;42.672;23.230;2023-02-28T00:09:11;93814.28;;;3.88;100.00
10988;BME280;5547;42.672;23.230;2023-02-28T00:12:12;93799.06;;;3.77;100.00
10988;BME280;5547;42.672;23.230;2023-02-28T00:15:12;93804.53;;;3.88;100.00
10988;BME280;5547;42.672;23.230;2023-02-28T00:18:13;93775.41;;;3.58;100.00
10988;BME280;5547;42.672;23.230;2023-02-28T00:21:13;93818.22;;;3.78;100.00
10988;BME280;5547;42.672;23.230;2023-02-28T00:24:14;93820.31;;;3.69;100.00
10988;BME280;5547;42.672;23.230;2023-02-28T00:27:14;93818.44;;;3.69;100.00
10988;BME280;5547;42.672;23.230;2023-02-28T00:30:18;93819.22;;;3.70;100.00
10988;BME280;5547;42.672;23.230;2023-02-28T00:33:19;93815.56;;;3.74;100.00
10988;BME280;5547;42.672;23.230;2023-02-28T00:36:19;93824.78;;;3.88;100.00
10988;BME280;5547;42.672;23.230;2023-02-28T00:39:20;93829.19;;;3.80;100.00
10988;BME280;5547;42.672;23.230;2023-02-28T00:42:21;93813.84;;;3.86;100.00
10988;BME280;5547;42.672;23.230;2023-02-28T00:45:21;93783.16;;;3.51;100.00
10988;BME280;5547;42.672;23.230;2023-02-28T00:48:21;93774.38;;;3.43;100.00
10988;BME280;5547;42.672;23.230;2023-02-28T00:51:22;93818.19;;;3.74;100.00
10988;BME280;5547;42.672;23.230;2023-02-28T00:54:22;93821.31;;;3.61;100.00
10988;BME280;5547;42.672;23.230;2023-02-28T00:57:23;93783.44;;;3.26;100.00
10988;BME280;5547;42.672;23.230;2023-02-28T01:00:23;93782.72;;;3.49;100.00
10988;BME280;5547;42.672;23.230;2023-02-28T01:03:24;93817.47;;;3.58;100.00
10988;BME280;5547;42.672;23.230;2023-02-28T01:06:24;93797.75;;;3.48;100.00
10988;BME280;5547;42.672;23.230;2023-02-28T01:09:25;93776.13;;;3.35;100.00
10988;BME280;5547;42.672;23.230;2023-02-28T01:12:25;93799.84;;;3.39;100.00
10988;BME280;5547;42.672;23.230;2023-02-28T01:15:26;93812.16;;;3.35;100.00
10988;BME280;5547;42.672;23.230;2023-02-28T01:18:26;93793.81;;;3.39;100.00
10988;BME280;5547;42.672;23.230;2023-02-28T01:21:27;93815.50;;;3.51;100.00
10988;BME280;5547;42.672;23.230;2023-02-28T01:24:27;93805.28;;;3.30;100.00
10988;BME280;5547;42.672;23.230;2023-02-28T01:27:28;93794.59;;;3.20;100.00
10988;BME280;5547;42.672;23.230;2023-02-28T01:30:29;93714.91;;;2.96;100.00
10988;BME280;5547;42.672;23.230;2023-02-28T01:33:29;93785.09;;;3.34;100.00
10988;BME280;5547;42.672;23.230;2023-02-28T01:36:30;93809.16;;;3.75;100.00
10988;BME280;5547;42.672;23.230;2023-02-28T01:39:30;93797.13;;;3.55;100.00
10988;BME280;5547;42.672;23.230;2023-02-28T01:42:31;93804.06;;;3.24;100.00
10988;BME280;5547;42.672;23.230;2023-02-28T01:45:31;93813.69;;;3.36;100.00
10988;BME280;5547;42.672;23.230;2023-02-28T01:48:38;93812.66;;;3.41;100.00
10988;BME280;5547;42.672;23.230;2023-02-28T01:51:48;93797.88;;;2.97;100.00
10988;BME280;5547;42.672;23.230;2023-02-28T01:54:55;93801.78;;;2.87;100.00
10988;BME280;5547;42.672;23.230;2023-02-28T01:58:00;93817.91;;;2.86;100.00
10988;BME280;5547;42.672;23.230;2023-02-28T02:01:02;93789.75;;;2.86;100.00
10988;BME280;5547;42.672;23.230;2023-02-28T02:04:03;93818.41;;;2.91;100.00
10988;BME280;5547;42.672;23.230;2023-02-28T02:07:04;93817.06;;;3.17;100.00
10988;BME280;5547;42.672;23.230;2023-02-28T02:16:41;93803.78;;;3.10;100.00
10988;BME280;5547;42.672;23.230;2023-02-28T02:36:24;93785.66;;;3.44;100.00
10988;BME280;5547;42.672;23.230;2023-02-28T02:39:33;93793.69;;;3.31;100.00
10988;BME280;5547;42.672;23.230;2023-02-28T02:45:55;93814.78;;;3.35;100.00
10988;BME280;5547;42.672;23.230;2023-02-28T02:48:57;93789.59;;;3.14;100.00
10988;BME280;5547;42.672;23.230;2023-02-28T02:52:04;93815.91;;;3.34;100.00
10988;BME280;5547;42.672;23.230;2023-02-28T02:55:07;93817.00;;;3.33;100.00
10988;BME280;5547;42.672;23.230;2023-02-28T02:58:14;93798.31;;;3.19;100.00
10988;BME280;5547;42.672;23.230;2023-02-28T03:01:21;93822.66;;;3.35;100.00
10988;BME280;5547;42.672;23.230;2023-02-28T03:04:36;93811.81;;;3.17;100.00
10988;BME280;5547;42.672;23.230;2023-02-28T03:07:38;93819.97;;;3.31;100.00
10988;BME280;5547;42.672;23.230;2023-02-28T03:10:44;93803.00;;;3.09;100.00
10988;BME280;5547;42.672;23.230;2023-02-28T03:13:54;93816.50;;;3.08;100.00
10988;BME280;5547;42.672;23.230;2023-02-28T03:17:09;93836.44;;;2.93;100.00
10988;BME280;5547;42.672;23.230;2023-02-28T03:27:09;93799.78;;;2.65;100.00
10988;BME280;5547;42.672;23.230;2023-02-28T03:33:18;93845.81;;;3.10;100.00
10988;BME280;5547;42.672;23.230;2023-02-28T03:36:27;93854.88;;;3.12;100.00
10988;BME280;5547;42.672;23.230;2023-02-28T03:42:42;93856.28;;;3.26;100.00
10988;BME280;5547;42.672;23.230;2023-02-28T03:45:44;93793.69;;;2.61;100.00
10988;BME280;5547;42.672;23.230;2023-02-28T03:48:51;93837.22;;;2.93;100.00
10988;BME280;5547;42.672;23.230;2023-02-28T03:51:54;93869.72;;;3.05;100.00
10988;BME280;5547;42.672;23.230;2023-02-28T03:55:00;93871.69;;;3.08;100.00
10988;BME280;5547;42.672;23.230;2023-02-28T04:01:19;93859.06;;;2.98;100.00
10988;BME280;5547;42.672;23.230;2023-02-28T04:04:20;93874.94;;;3.21;100.00
10988;BME280;5547;42.672;23.230;2023-02-28T04:07:22;93865.69;;;3.27;100.00
10988;BME280;5547;42.672;23.230;2023-02-28T04:10:22;93868.75;;;3.29;100.00
10988;BME280;5547;42.672;23.230;2023-02-28T04:13:23;93862.16;;;3.19;100.00
10988;BME280;5547;42.672;23.230;2023-02-28T04:16:24;93866.91;;;3.13;100.00
10988;BME280;5547;42.672;23.230;2023-02-28T04:19:24;93875.25;;;3.35;100.00
10988;BME280;5547;42.672;23.230;2023-02-28T04:22:25;93866.59;;;3.34;100.00
10988;BME280;5547;42.672;23.230;2023-02-28T04:25:28;93855.41;;;3.02;100.00
10988;BME280;5547;42.672;23.230;2023-02-28T04:28:28;93845.69;;;3.22;100.00
10988;BME280;5547;42.672;23.230;2023-02-28T04:31:29;93864.38;;;3.17;100.00
10988;BME280;5547;42.672;23.230;2023-02-28T04:34:31;93864.66;;;3.12;100.00
10988;BME280;5547;42.672;23.230;2023-02-28T04:37:32;93865.59;;;3.04;100.00
10988;BME280;5547;42.672;23.230;2023-02-28T04:40:35;93782.19;;;2.49;100.00
10988;BME280;5547;42.672;23.230;2023-02-28T04:43:35;93868.38;;;2.95;100.00
10988;BME280;5547;42.672;23.230;2023-02-28T04:46:36;93884.22;;;3.14;100.00
10988;BME280;5547;42.672;23.230;2023-02-28T04:49:36;93865.19;;;2.70;100.00
10988;BME280;5547;42.672;23.230;2023-02-28T04:52:37;93897.22;;;2.91;100.00
10988;BME280;5547;42.672;23.230;2023-02-28T04:55:37;93898.25;;;3.03;100.00
10988;BME280;5547;42.672;23.230;2023-02-28T04:58:40;93891.88;;;2.88;100.00
10988;BME280;5547;42.672;23.230;2023-02-28T05:01:49;93886.34;;;3.09;100.00
10988;BME280;5547;42.672;23.230;2023-02-28T05:04:50;93897.06;;;3.35;100.00
10988;BME280;5547;42.672;23.230;2023-02-28T05:07:52;93896.38;;;3.03;100.00
10988;BME280;5547;42.672;23.230;2023-02-28T05:10:53;93836.66;;;2.68;100.00
10988;BME280;5547;42.672;23.230;2023-02-28T05:13:56;93877.81;;;2.80;100.00
10988;BME280;5547;42.672;23.230;2023-02-28T05:16:57;93906.13;;;3.03;100.00
10988;BME280;5547;42.672;23.230;2023-02-28T05:19:58;93894.25;;;2.93;100.00
10988;BME280;5547;42.672;23.230;2023-02-28T05:22:59;93901.09;;;2.98;100.00
10988;BME280;5547;42.672;23.230;2023-02-28T05:26:00;93908.97;;;3.13;100.00
10988;BME280;5547;42.672;23.230;2023-02-28T05:29:00;93919.00;;;3.08;100.00
10988;BME280;5547;42.672;23.230;2023-02-28T05:32:01;93882.13;;;2.72;100.00
10988;BME280;5547;42.672;23.230;2023-02-28T05:35:01;93904.75;;;2.93;100.00
10988;BME280;5547;42.672;23.230;2023-02-28T05:38:02;93928.53;;;3.16;100.00
10988;BME280;5547;42.672;23.230;2023-02-28T05:41:07;93928.75;;;3.07;100.00
10988;BME280;5547;42.672;23.230;2023-02-28T05:44:07;93914.50;;;2.92;100.00
10988;BME280;5547;42.672;23.230;2023-02-28T05:47:08;93931.88;;;2.97;100.00
10988;BME280;5547;42.672;23.230;2023-02-28T05:50:08;93897.22;;;2.91;100.00
10988;BME280;5547;42.672;23.230;2023-02-28T05:53:10;93911.19;;;2.95;100.00
10988;BME280;5547;42.672;23.230;2023-02-28T05:56:11;93944.16;;;3.09;100.00
10988;BME280;5547;42.672;23.230;2023-02-28T05:59:12;93930.81;;;3.33;100.00
10988;BME280;5547;42.672;23.230;2023-02-28T06:02:14;93915.34;;;2.97;100.00
10988;BME280;5547;42.672;23.230;2023-02-28T06:05:17;93905.28;;;2.99;100.00
10988;BME280;5547;42.672;23.230;2023-02-28T06:08:18;93934.44;;;3.45;100.00
10988;BME280;5547;42.672;23.230;2023-02-28T06:11:18;93932.50;;;3.26;100.00
10988;BME280;5547;42.672;23.230;2023-02-28T06:14:21;93924.03;;;3.16;100.00
10988;BME280;5547;42.672;23.230;2023-02-28T06:17:21;93936.34;;;3.28;100.00
10988;BME280;5547;42.672;23.230;2023-02-28T06:20:22;93920.78;;;3.04;100.00
10988;BME280;5547;42.672;23.230;2023-02-28T06:23:23;93927.94;;;3.23;100.00
10988;BME280;5547;42.672;23.230;2023-02-28T06:26:24;93877.72;;;2.92;100.00
10988;BME280;5547;42.672;23.230;2023-02-28T06:29:25;93912.41;;;3.33;100.00
10988;BME280;5547;42.672;23.230;2023-02-28T06:32:25;93909.38;;;3.31;100.00
10988;BME280;5547;42.672;23.230;2023-02-28T06:35:26;93929.66;;;3.31;100.00
10988;BME280;5547;42.672;23.230;2023-02-28T06:38:26;93952.75;;;3.57;100.00
10988;BME280;5547;42.672;23.230;2023-02-28T06:41:27;93956.53;;;3.60;100.00
10988;BME280;5547;42.672;23.230;2023-02-28T06:44:27;93959.75;;;3.69;100.00
10988;BME280;5547;42.672;23.230;2023-02-28T06:47:36;93967.03;;;3.75;100.00
10988;BME280;5547;42.672;23.230;2023-02-28T06:50:37;93955.25;;;3.69;100.00
10988;BME280;5547;42.672;23.230;2023-02-28T06:53:37;93930.19;;;3.56;100.00
10988;BME280;5547;42.672;23.230;2023-02-28T06:56:38;93966.38;;;3.98;100.00
10988;BME280;5547;42.672;23.230;2023-02-28T06:59:39;93967.03;;;3.95;100.00
10988;BME280;5547;42.672;23.230;2023-02-28T07:02:39;93960.34;;;4.17;100.00
10988;BME280;5547;42.672;23.230;2023-02-28T07:05:39;93963.94;;;3.89;100.00
10988;BME280;5547;42.672;23.230;2023-02-28T07:08:40;93954.03;;;3.83;100.00
10988;BME280;5547;42.672;23.230;2023-02-28T07:11:41;93967.53;;;4.20;100.00
10988;BME280;5547;42.672;23.230;2023-02-28T07:14:43;93983.53;;;3.92;100.00
10988;BME280;5547;42.672;23.230;2023-02-28T07:17:43;93961.66;;;4.27;100.00
10988;BME280;5547;42.672;23.230;2023-02-28T07:20:43;93976.75;;;3.91;100.00
10988;BME280;5547;42.672;23.230;2023-02-28T07:23:44;93940.00;;;3.59;100.00
10988;BME280;5547;42.672;23.230;2023-02-28T07:26:44;93961.38;;;3.57;100.00
10988;BME280;5547;42.672;23.230;2023-02-28T07:29:45;93920.19;;;3.46;100.00
10988;BME280;5547;42.672;23.230;2023-02-28T07:32:45;93966.72;;;3.61;100.00
10988;BME280;5547;42.672;23.230;2023-02-28T07:35:46;93968.53;;;3.76;100.00
10988;BME280;5547;42.672;23.230;2023-02-28T07:38:47;93971.00;;;4.05;100.00
10988;BME280;5547;42.672;23.230;2023-02-28T07:41:50;93974.53;;;3.93;100.00
10988;BME280;5547;42.672;23.230;2023-02-28T07:44:51;93972.81;;;4.00;100.00
10988;BME280;5547;42.672;23.230;2023-02-28T07:47:53;93942.47;;;4.07;100.00
10988;BME280;5547;42.672;23.230;2023-02-28T07:50:57;93970.72;;;3.90;100.00
10988;BME280;5547;42.672;23.230;2023-02-28T07:53:57;93911.00;;;3.55;100.00
10988;BME280;5547;42.672;23.230;2023-02-28T07:56:58;93958.47;;;3.98;100.00
10988;BME280;5547;42.672;23.230;2023-02-28T07:59:59;93929.25;;;3.84;100.00
10988;BME280;5547;42.672;23.230;2023-02-28T08:02:59;93965.28;;;4.18;100.00
10988;BME280;5547;42.672;23.230;2023-02-28T08:06:00;93951.56;;;4.09;100.00
10988;BME280;5547;42.672;23.230;2023-02-28T08:09:03;93959.34;;;4.25;100.00
10988;BME280;5547;42.672;23.230;2023-02-28T08:12:03;93949.78;;;4.36;100.00
10988;BME280;5547;42.672;23.230;2023-02-28T08:15:04;93867.31;;;3.90;100.00
10988;BME280;5547;42.672;23.230;2023-02-28T08:18:04;93957.22;;;4.31;100.00
10988;BME280;5547;42.672;23.230;2023-02-28T08:21:07;93956.97;;;4.59;100.00
10988;BME280;5547;42.672;23.230;2023-02-28T08:24:08;93967.88;;;4.80;100.00
10988;BME280;5547;42.672;23.230;2023-02-28T08:27:08;93976.16;;;4.79;100.00
10988;BME280;5547;42.672;23.230;2023-02-28T08:30:11;93976.44;;;4.97;100.00
10988;BME280;5547;42.672;23.230;2023-02-28T08:33:12;93980.88;;;5.16;100.00
10988;BME280;5547;42.672;23.230;2023-02-28T08:36:13;93982.00;;;5.15;100.00
10988;BME280;5547;42.672;23.230;2023-02-28T08:39:13;93943.22;;;4.69;100.00
10988;BME280;5547;42.672;23.230;2023-02-28T08:42:13;93973.28;;;4.88;100.00
10988;BME280;5547;42.672;23.230;2023-02-28T08:45:14;93979.47;;;5.22;100.00
10988;BME280;5547;42.672;23.230;2023-02-28T08:48:15;93973.19;;;5.30;100.00
10988;BME280;5547;42.672;23.230;2023-02-28T08:51:16;93967.19;;;5.33;100.00
10988;BME280;5547;42.672;23.230;2023-02-28T08:54:19;93970.75;;;5.18;100.00
10988;BME280;5547;42.672;23.230;2023-02-28T08:57:19;93982.88;;;5.22;100.00
10988;BME280;5547;42.672;23.230;2023-02-28T09:00:21;93929.56;;;5.10;100.00
10988;BME280;5547;42.672;23.230;2023-02-28T09:03:23;93945.03;;;5.64;100.00
10988;BME280;5547;42.672;23.230;2023-02-28T09:06:26;93990.00;;;5.72;100.00
10988;BME280;5547;42.672;23.230;2023-02-28T09:09:27;93942.16;;;5.20;100.00
10988;BME280;5547;42.672;23.230;2023-02-28T09:12:33;93965.06;;;5.42;100.00
10988;BME280;5547;42.672;23.230;2023-02-28T09:15:37;93969.50;;;5.35;100.00
10988;BME280;5547;42.672;23.230;2023-02-28T09:18:38;93962.84;;;5.44;100.00
10988;BME280;5547;42.672;23.230;2023-02-28T09:21:39;93976.53;;;6.07;100.00
10988;BME280;5547;42.672;23.230;2023-02-28T09:24:40;93969.03;;;5.56;100.00
10988;BME280;5547;42.672;23.230;2023-02-28T09:27:40;93968.00;;;5.90;100.00
10988;BME280;5547;42.672;23.230;2023-02-28T09:30:40;93973.59;;;5.85;100.00
10988;BME280;5547;42.672;23.230;2023-02-28T09:33:41;93969.53;;;5.92;100.00
10988;BME280;5547;42.672;23.230;2023-02-28T09:36:41;93944.53;;;6.12;100.00
10988;BME280;5547;42.672;23.230;2023-02-28T09:39:42;93973.75;;;6.26;100.00
10988;BME280;5547;42.672;23.230;2023-02-28T09:42:42;93968.38;;;6.49;100.00
10988;BME280;5547;42.672;23.230;2023-02-28T09:45:52;93967.41;;;6.68;100.00
10988;BME280;5547;42.672;23.230;2023-02-28T09:49:01;93966.00;;;5.80;100.00
10988;BME280;5547;42.672;23.230;2023-02-28T09:52:07;93966.50;;;5.89;100.00
10988;BME280;5547;42.672;23.230;2023-02-28T09:55:44;93965.78;;;5.93;100.00
10988;BME280;5547;42.672;23.230;2023-02-28T09:59:01;93928.50;;;5.98;100.00
10988;BME280;5547;42.672;23.230;2023-02-28T10:05:13;93965.06;;;6.60;100.00
10988;BME280;5547;42.672;23.230;2023-02-28T10:08:19;93958.34;;;6.66;100.00
10988;BME280;5547;42.672;23.230;2023-02-28T10:11:26;93949.19;;;7.01;100.00
10988;BME280;5547;42.672;23.230;2023-02-28T10:14:29;93938.22;;;6.99;100.00
10988;BME280;5547;42.672;23.230;2023-02-28T10:17:38;93922.25;;;6.88;100.00
10988;BME280;5547;42.672;23.230;2023-02-28T10:20:40;93930.06;;;6.73;100.00
10988;BME280;5547;42.672;23.230;2023-02-28T10:23:42;93928.69;;;6.90;100.00
10988;BME280;5547;42.672;23.230;2023-02-28T10:26:47;93942.50;;;7.73;100.00
10988;BME280;5547;42.672;23.230;2023-02-28T10:29:57;93939.59;;;7.30;100.00
10988;BME280;5547;42.672;23.230;2023-02-28T10:32:57;93939.84;;;7.66;100.00
10988;BME280;5547;42.672;23.230;2023-02-28T10:35:58;93926.06;;;8.19;100.00
10988;BME280;5547;42.672;23.230;2023-02-28T10:38:59;93911.38;;;8.39;100.00
10988;BME280;5547;42.672;23.230;2023-02-28T10:42:00;93909.44;;;8.29;100.00
10988;BME280;5547;42.672;23.230;2023-02-28T10:45:15;93907.31;;;8.67;100.00
10988;BME280;5547;42.672;23.230;2023-02-28T10:51:19;93895.91;;;9.42;100.00
10988;BME280;5547;42.672;23.230;2023-02-28T10:54:24;93892.78;;;9.79;100.00
10988;BME280;5547;42.672;23.230;2023-02-28T10:57:30;93890.22;;;9.47;100.00
10988;BME280;5547;42.672;23.230;2023-02-28T11:00:35;93889.47;;;9.43;100.00
10988;BME280;5547;42.672;23.230;2023-02-28T11:03:36;93864.75;;;9.71;99.05
10988;BME280;5547;42.672;23.230;2023-02-28T11:06:36;93887.66;;;10.28;95.54
10988;BME280;5547;42.672;23.230;2023-02-28T11:09:40;93867.38;;;9.75;98.90
10988;BME280;5547;42.672;23.230;2023-02-28T11:12:44;93878.03;;;9.67;98.96
10988;BME280;5547;42.672;23.230;2023-02-28T11:15:52;93868.63;;;9.23;100.00
10988;BME280;5547;42.672;23.230;2023-02-28T11:18:55;93864.88;;;9.17;100.00
10988;BME280;5547;42.672;23.230;2023-02-28T11:22:01;93867.47;;;9.35;98.60
10988;BME280;5547;42.672;23.230;2023-02-28T11:25:08;93854.97;;;9.43;96.65
10988;BME280;5547;42.672;23.230;2023-02-28T11:28:30;93861.75;;;9.62;98.25
10988;BME280;5547;42.672;23.230;2023-02-28T11:31:31;93861.41;;;9.42;98.52
10988;BME280;5547;42.672;23.230;2023-02-28T11:34:32;93845.44;;;9.60;97.13
10988;BME280;5547;42.672;23.230;2023-02-28T11:37:33;93849.13;;;9.87;96.92
10988;BME280;5547;42.672;23.230;2023-02-28T11:44:32;93821.50;;;9.71;94.70
10988;BME280;5547;42.672;23.230;2023-02-28T11:52:01;93832.00;;;9.96;93.85
10988;BME280;5547;42.672;23.230;2023-02-28T11:58:33;93838.91;;;9.79;94.55
10988;BME280;5547;42.672;23.230;2023-02-28T12:05:13;93845.16;;;10.21;92.81
10988;BME280;5547;42.672;23.230;2023-02-28T12:12:04;93833.97;;;9.81;92.67
10988;BME280;5547;42.672;23.230;2023-02-28T12:22:11;93838.81;;;10.00;92.18
10988;BME280;5547;42.672;23.230;2023-02-28T12:25:24;93814.28;;;9.67;92.14
10988;BME280;5547;42.672;23.230;2023-02-28T12:28:37;93836.97;;;9.94;94.51
10988;BME280;5547;42.672;23.230;2023-02-28T12:31:46;93831.59;;;10.04;91.42
10988;BME280;5547;42.672;23.230;2023-02-28T12:35:02;93840.44;;;9.76;91.47
10988;BME280;5547;42.672;23.230;2023-02-28T12:38:05;93830.28;;;9.53;91.49
10988;BME280;5547;42.672;23.230;2023-02-28T12:44:18;93800.03;;;9.11;93.33
10988;BME280;5547;42.672;23.230;2023-02-28T12:47:19;93807.28;;;8.93;94.76
10988;BME280;5547;42.672;23.230;2023-02-28T12:50:20;93767.88;;;8.66;94.54
10988;BME280;5547;42.672;23.230;2023-02-28T13:00:35;93820.13;;;9.16;93.90
10988;BME280;5547;42.672;23.230;2023-02-28T13:07:30;93811.78;;;9.03;94.92
10988;BME280;5547;42.672;23.230;2023-02-28T13:10:44;93782.66;;;8.92;94.76
10988;BME280;5547;42.672;23.230;2023-02-28T13:13:45;93794.78;;;8.90;93.08
10988;BME280;5547;42.672;23.230;2023-02-28T13:16:51;93819.38;;;9.04;94.46
10988;BME280;5547;42.672;23.230;2023-02-28T13:22:54;93810.31;;;8.95;95.11
10988;BME280;5547;42.672;23.230;2023-02-28T13:25:57;93770.91;;;8.61;94.64
10988;BME280;5547;42.672;23.230;2023-02-28T13:29:00;93800.47;;;8.70;95.39
10988;BME280;5547;42.672;23.230;2023-02-28T13:38:15;93773.19;;;8.52;94.41
10988;BME280;5547;42.672;23.230;2023-02-28T13:44:28;93779.63;;;8.76;94.65
10988;BME280;5547;42.672;23.230;2023-02-28T13:47:34;93789.84;;;8.84;92.60
10988;BME280;5547;42.672;23.230;2023-02-28T13:50:37;93784.13;;;9.04;93.69
10988;BME280;5547;42.672;23.230;2023-02-28T13:53:54;93751.94;;;8.84;92.97
10988;BME280;5547;42.672;23.230;2023-02-28T14:06:37;93770.94;;;8.57;93.04
10988;BME280;5547;42.672;23.230;2023-02-28T14:09:41;93776.63;;;8.41;91.82
10988;BME280;5547;42.672;23.230;2023-02-28T14:12:53;93777.31;;;8.38;92.85
10988;BME280;5547;42.672;23.230;2023-02-28T14:16:02;93772.44;;;8.55;93.84
10988;BME280;5547;42.672;23.230;2023-02-28T14:19:19;93775.09;;;8.40;92.46
10988;BME280;5547;42.672;23.230;2023-02-28T14:25:33;93771.31;;;8.41;93.49
10988;BME280;5547;42.672;23.230;2023-02-28T14:29:05;93767.91;;;8.45;93.08
10988;BME280;5547;42.672;23.230;2023-02-28T14:38:54;93777.72;;;8.37;93.65
10988;BME280;5547;42.672;23.230;2023-02-28T14:41:56;93763.69;;;8.29;93.59
10988;BME280;5547;42.672;23.230;2023-02-28T14:44:59;93766.38;;;8.40;93.57
10988;BME280;5547;42.672;23.230;2023-02-28T14:48:01;93759.50;;;8.25;93.18
10988;BME280;5547;42.672;23.230;2023-02-28T14:51:02;93763.31;;;8.38;92.50
10988;BME280;5547;42.672;23.230;2023-02-28T14:54:03;93770.88;;;8.21;93.73
10988;BME280;5547;42.672;23.230;2023-02-28T14:57:04;93767.09;;;8.12;94.62
10988;BME280;5547;42.672;23.230;2023-02-28T15:00:26;93711.41;;;7.83;94.61
10988;BME280;5547;42.672;23.230;2023-02-28T15:03:39;93701.88;;;7.35;96.45
10988;BME280;5547;42.672;23.230;2023-02-28T15:06:44;93755.31;;;7.84;96.61
10988;BME280;5547;42.672;23.230;2023-02-28T15:09:45;93729.94;;;7.72;96.22
10988;BME280;5547;42.672;23.230;2023-02-28T15:13:07;93763.63;;;7.83;96.76
10988;BME280;5547;42.672;23.230;2023-02-28T15:16:14;93762.50;;;7.87;96.47
10988;BME280;5547;42.672;23.230;2023-02-28T15:19:32;93765.50;;;7.78;97.81
10988;BME280;5547;42.672;23.230;2023-02-28T15:22:36;93757.13;;;7.58;98.36
10988;BME280;5547;42.672;23.230;2023-02-28T15:25:37;93765.09;;;7.66;98.81
10988;BME280;5547;42.672;23.230;2023-02-28T15:28:40;93754.81;;;7.43;99.71
10988;BME280;5547;42.672;23.230;2023-02-28T15:31:45;93767.28;;;7.46;100.00
10988;BME280;5547;42.672;23.230;2023-02-28T15:34:46;93779.00;;;7.41;100.00
10988;BME280;5547;42.672;23.230;2023-02-28T15:37:53;93766.00;;;7.11;100.00
10988;BME280;5547;42.672;23.230;2023-02-28T15:40:56;93779.69;;;7.24;100.00
10988;BME280;5547;42.672;23.230;2023-02-28T15:47:24;93783.44;;;7.19;100.00
10988;BME280;5547;42.672;23.230;2023-02-28T15:50:27;93791.31;;;7.08;100.00
10988;BME280;5547;42.672;23.230;2023-02-28T15:53:31;93676.38;;;6.25;100.00
10988;BME280;5547;42.672;23.230;2023-02-28T15:56:35;93751.44;;;6.72;100.00
10988;BME280;5547;42.672;23.230;2023-02-28T15:59:38;93704.03;;;6.39;100.00
10988;BME280;5547;42.672;23.230;2023-02-28T16:02:39;93753.56;;;6.56;100.00
10988;BME280;5547;42.672;23.230;2023-02-28T16:05:40;93793.00;;;6.76;100.00
10988;BME280;5547;42.672;23.230;2023-02-28T16:08:41;93801.28;;;6.70;100.00
10988;BME280;5547;42.672;23.230;2023-02-28T16:11:52;93760.75;;;6.52;100.00
10988;BME280;5547;42.672;23.230;2023-02-28T16:14:56;93754.50;;;6.26;100.00
10988;BME280;5547;42.672;23.230;2023-02-28T16:17:57;93773.72;;;6.23;100.00
10988;BME280;5547;42.672;23.230;2023-02-28T16:20:58;93734.56;;;5.92;100.00
10988;BME280;5547;42.672;23.230;2023-02-28T16:23:58;93807.41;;;6.37;100.00
10988;BME280;5547;42.672;23.230;2023-02-28T16:26:59;93799.66;;;6.14;100.00
10988;BME280;5547;42.672;23.230;2023-02-28T16:30:00;93842.78;;;6.25;100.00
10988;BME280;5547;42.672;23.230;2023-02-28T16:33:01;93812.81;;;6.07;100.00
10988;BME280;5547;42.672;23.230;2023-02-28T16:36:01;93850.50;;;6.04;100.00
10988;BME280;5547;42.672;23.230;2023-02-28T16:39:02;93851.09;;;5.94;100.00
10988;BME280;5547;42.672;23.230;2023-02-28T16:42:03;93839.91;;;5.70;100.00
10988;BME280;5547;42.672;23.230;2023-02-28T16:45:06;93858.59;;;5.88;100.00
10988;BME280;5547;42.672;23.230;2023-02-28T16:48:12;93851.28;;;5.74;100.00
10988;BME280;5547;42.672;23.230;2023-02-28T16:51:16;93823.34;;;5.39;100.00
10988;BME280;5547;42.672;23.230;2023-02-28T16:54:16;93871.97;;;5.68;100.00
10988;BME280;5547;42.672;23.230;2023-02-28T16:57:20;93807.13;;;5.07;100.00
10988;BME280;5547;42.672;23.230;2023-02-28T17:00:22;93870.25;;;5.53;100.00
10988;BME280;5547;42.672;23.230;2023-02-28T17:03:25;93870.25;;;5.53;100.00
10988;BME280;5547;42.672;23.230;2023-02-28T17:06:27;93861.38;;;5.38;100.00
10988;BME280;5547;42.672;23.230;2023-02-28T17:09:28;93882.09;;;5.36;100.00
10988;BME280;5547;42.672;23.230;2023-02-28T17:12:28;93826.94;;;4.97;100.00
10988;BME280;5547;42.672;23.230;2023-02-28T17:15:29;93866.03;;;5.18;100.00
10988;BME280;5547;42.672;23.230;2023-02-28T17:18:30;93869.94;;;5.28;100.00
10988;BME280;5547;42.672;23.230;2023-02-28T17:21:33;93867.50;;;5.16;100.00
10988;BME280;5547;42.672;23.230;2023-02-28T17:24:37;93877.22;;;5.12;100.00
10988;BME280;5547;42.672;23.230;2023-02-28T17:27:38;93839.31;;;4.93;100.00
10988;BME280;5547;42.672;23.230;2023-02-28T17:30:38;93862.06;;;5.05;100.00
10988;BME280;5547;42.672;23.230;2023-02-28T17:33:40;93865.34;;;4.98;100.00
10988;BME280;5547;42.672;23.230;2023-02-28T17:36:41;93861.88;;;4.91;100.00
10988;BME280;5547;42.672;23.230;2023-02-28T17:39:41;93868.75;;;4.99;100.00
10988;BME280;5547;42.672;23.230;2023-02-28T17:42:42;93869.81;;;4.94;100.00
10988;BME280;5547;42.672;23.230;2023-02-28T17:45:43;93851.25;;;4.87;100.00
10988;BME280;5547;42.672;23.230;2023-02-28T17:48:44;93845.88;;;4.80;100.00
10988;BME280;5547;42.672;23.230;2023-02-28T17:51:44;93856.00;;;4.78;100.00
10988;BME280;5547;42.672;23.230;2023-02-28T17:54:45;93847.31;;;4.74;100.00
10988;BME280;5547;42.672;23.230;2023-02-28T17:57:46;93833.16;;;4.59;100.00
10988;BME280;5547;42.672;23.230;2023-02-28T18:00:46;93852.06;;;4.65;100.00
10988;BME280;5547;42.672;23.230;2023-02-28T18:03:48;93824.94;;;4.41;100.00
10988;BME280;5547;42.672;23.230;2023-02-28T18:06:48;93803.78;;;4.34;100.00
10988;BME280;5547;42.672;23.230;2023-02-28T18:09:52;93801.31;;;4.21;100.00
10988;BME280;5547;42.672;23.230;2023-02-28T18:12:53;93841.47;;;4.38;100.00
10988;BME280;5547;42.672;23.230;2023-02-28T18:15:56;93849.81;;;4.43;100.00